createdAt,value
2023-11-16T00:00:10.705Z,7.2
2023-11-16T00:06:03.210Z,7.1
2023-11-16T00:11:39.369Z,7
2023-11-16T00:17:31.893Z,6.9
2023-11-16T00:23:08.433Z,6.8
2023-11-16T00:28:29.030Z,6.8
2023-11-16T00:34:05.340Z,6.6
2023-11-16T00:39:41.994Z,6.6
2023-11-16T00:45:17.983Z,6.4
2023-11-16T00:51:10.216Z,6.3
2023-11-16T00:57:01.761Z,6.2
2023-11-16T01:02:53.358Z,6
2023-11-16T01:08:45.976Z,5.9
2023-11-16T01:14:37.809Z,5.8
2023-11-16T01:20:29.706Z,5.8
2023-11-16T01:26:24.604Z,5.8
2023-11-16T01:32:16.922Z,5.6
2023-11-16T01:37:52.809Z,5.6
2023-11-16T01:43:44.710Z,5.5
2023-11-16T01:49:36.834Z,5.4
2023-11-16T01:55:28.159Z,5.4
2023-11-16T02:00:49.169Z,5.4
2023-11-16T02:06:44.953Z,5.4
2023-11-16T02:12:21.091Z,5.4
2023-11-16T02:18:13.138Z,5.4
2023-11-16T02:23:49.531Z,5.4
2023-11-16T02:29:40.480Z,5.5
2023-11-16T02:35:20.587Z,5.6
2023-11-16T02:41:12.148Z,5.6
2023-11-16T02:47:03.924Z,5.6
2023-11-16T02:52:56.862Z,5.6
2023-11-16T02:58:48.515Z,5.6
2023-11-16T03:04:40.962Z,5.6
2023-11-16T03:10:41.485Z,5.6
2023-11-16T03:16:33.423Z,5.6
2023-11-16T03:22:24.592Z,5.6
2023-11-16T03:28:16.452Z,5.6
2023-11-16T03:34:13.608Z,5.6
2023-11-16T03:40:04.484Z,5.6
2023-11-16T03:45:55.873Z,5.6
2023-11-16T03:51:49.175Z,5.6
2023-11-16T03:57:40.647Z,5.5
2023-11-16T04:03:32.819Z,5.4
2023-11-16T04:09:29.291Z,5.4
2023-11-16T04:15:04.821Z,5.4
2023-11-16T04:20:58.098Z,5.6
2023-11-16T04:26:50.406Z,5.8
2023-11-16T04:32:42.061Z,5.8
2023-11-16T04:38:18.384Z,5.8
2023-11-16T04:43:55.198Z,5.9
2023-11-16T04:49:46.614Z,5.9
2023-11-16T04:55:39.022Z,5.9
2023-11-16T05:01:32.217Z,5.9
2023-11-16T05:07:26.337Z,5.9
2023-11-16T05:13:20.041Z,5.8
2023-11-16T05:19:14.730Z,5.8
2023-11-16T05:25:06.588Z,5.8
2023-11-16T05:30:58.359Z,5.8
2023-11-16T05:36:35.755Z,5.8
2023-11-16T05:42:12.733Z,5.9
2023-11-16T05:48:05.100Z,6
2023-11-16T05:53:58.622Z,6.5
2023-11-16T05:59:50.230Z,8.2
2023-11-16T06:05:44.949Z,10.5
2023-11-16T06:11:39.835Z,13.1
2023-11-16T06:17:41.417Z,15.9
2023-11-16T06:23:33.262Z,18.6
2023-11-16T06:29:25.029Z,21.4
2023-11-16T06:35:18.128Z,24
2023-11-16T06:41:10.563Z,26.8
2023-11-16T06:47:03.772Z,29.2
2023-11-16T06:52:25.591Z,31.3
2023-11-16T06:58:19.354Z,33.7
2023-11-16T07:03:57.062Z,36
2023-11-16T07:09:49.146Z,38.1
2023-11-16T07:15:49.986Z,42.2
2023-11-16T07:21:44.391Z,36.8
2023-11-16T07:27:36.231Z,33.3
2023-11-16T07:33:28.553Z,36.8
2023-11-16T07:39:04.559Z,42.8
2023-11-16T07:44:55.714Z,40.7
2023-11-16T07:50:32.202Z,37.4
2023-11-16T07:56:24.128Z,38.3
2023-11-16T08:02:18.546Z,39.5
2023-11-16T08:08:14.236Z,40.8
2023-11-16T08:14:08.843Z,42
2023-11-16T08:20:00.961Z,43.3
2023-11-16T08:26:07.581Z,44.3
2023-11-16T08:31:44.295Z,45.4
2023-11-16T08:37:37.433Z,46.6
2023-11-16T08:43:14.416Z,47.4
2023-11-16T08:48:52.548Z,48.2
2023-11-16T08:54:48.070Z,48.9
2023-11-16T09:00:51.439Z,49.4
2023-11-16T09:06:30.816Z,50.1
2023-11-16T09:12:23.820Z,50.5
2023-11-16T09:18:15.844Z,50.7
2023-11-16T09:23:37.634Z,51.3
2023-11-16T09:29:41.543Z,51.4
2023-11-16T09:35:44.395Z,53.3
2023-11-16T09:41:38.664Z,52.9
2023-11-16T09:47:00.554Z,45.1
2023-11-16T09:52:52.790Z,43.2
2023-11-16T09:58:55.007Z,54.5
2023-11-16T10:04:33.665Z,55.3
2023-11-16T10:10:25.597Z,50.3
2023-11-16T10:16:22.115Z,52.5
2023-11-16T10:22:02.752Z,54.3
2023-11-16T10:27:57.204Z,54.9
2023-11-16T10:33:51.199Z,54.7
2023-11-16T10:39:47.392Z,54.5
2023-11-16T10:45:23.549Z,54.3
2023-11-16T10:51:17.331Z,53.9
2023-11-16T10:57:11.983Z,54.4
2023-11-16T11:03:05.402Z,54.8
2023-11-16T11:09:00.130Z,54.9
2023-11-16T11:14:51.473Z,54.1
2023-11-16T11:20:45.973Z,53.6
2023-11-16T11:26:39.260Z,53
2023-11-16T11:32:30.882Z,53.3
2023-11-16T11:38:36.565Z,53.1
2023-11-16T11:44:31.698Z,50.4
2023-11-16T11:50:08.980Z,52.3
2023-11-16T11:56:02.616Z,54.1
2023-11-16T12:02:05.054Z,58.3
2023-11-16T12:07:54.164Z,53.4
2023-11-16T12:13:47.463Z,48.3
2023-11-16T12:19:48.197Z,49.5
2023-11-16T12:25:40.886Z,50.8
2023-11-16T12:31:33.537Z,51.2
2023-11-16T12:37:28.820Z,48
2023-11-16T12:43:25.154Z,46.3
2023-11-16T12:49:23.885Z,47.4
2023-11-16T12:55:15.665Z,47.1
2023-11-16T13:00:38.701Z,46.8
2023-11-16T13:06:44.049Z,45.8
2023-11-16T13:12:34.166Z,45.4
2023-11-16T13:18:26.230Z,44.8
2023-11-16T13:24:06.613Z,43.9
2023-11-16T13:30:09.675Z,42.9
2023-11-16T13:35:49.237Z,41.6
2023-11-16T13:41:28.472Z,40.4
2023-11-16T13:47:21.183Z,39
2023-11-16T13:52:42.229Z,37.6
2023-11-16T13:58:02.493Z,36.2
2023-11-16T14:03:43.569Z,34.8
2023-11-16T14:09:20.449Z,33.1
2023-11-16T14:15:27.408Z,31.8
2023-11-16T14:21:34.685Z,29.9
2023-11-16T14:27:43.160Z,28.1
2023-11-16T14:33:35.451Z,26.3
2023-11-16T14:39:37.177Z,24.4
2023-11-16T14:45:28.077Z,22.7
2023-11-16T14:51:18.723Z,20.8
2023-11-16T14:57:00.985Z,19.1
2023-11-16T15:02:52.989Z,17.4
2023-11-16T15:09:01.249Z,15.6
2023-11-16T15:14:51.024Z,14.4
2023-11-16T15:20:54.759Z,13.5
2023-11-16T15:27:07.905Z,12.6
2023-11-16T15:32:45.701Z,11.7
2023-11-16T15:38:37.545Z,11
2023-11-16T15:44:29.104Z,10.4
2023-11-16T15:50:22.501Z,9.8
2023-11-16T15:56:01.873Z,9.4
2023-11-16T16:01:59.143Z,8.9
2023-11-16T16:07:56.090Z,8.4
2023-11-16T16:13:47.300Z,8.1
2023-11-16T16:19:08.690Z,7.7
2023-11-16T16:25:00.470Z,7.3
2023-11-16T16:30:52.750Z,7
2023-11-16T16:36:47.237Z,6.8
2023-11-16T16:42:41.437Z,6.6
2023-11-16T16:48:43.117Z,6.3
2023-11-16T16:54:35.312Z,6.1
2023-11-16T17:00:29.628Z,5.9
2023-11-16T17:06:21.746Z,5.8
2023-11-16T17:12:13.905Z,5.6
2023-11-16T17:18:05.741Z,5.6
2023-11-16T17:23:42.380Z,5.4
2023-11-16T17:29:34.339Z,5.3
2023-11-16T17:35:28.025Z,5.2
2023-11-16T17:41:19.935Z,5.2
2023-11-16T17:46:41.575Z,5.1
2023-11-16T17:52:19.322Z,5.1
2023-11-16T17:58:11.293Z,5
2023-11-16T18:04:03.380Z,4.9
2023-11-16T18:09:57.307Z,4.8
2023-11-16T18:15:48.652Z,4.6
2023-11-16T18:21:40.126Z,4.4
2023-11-16T18:27:31.324Z,4.3
2023-11-16T18:33:23.400Z,4.2
2023-11-16T18:39:15.360Z,4.1
2023-11-16T18:45:10.632Z,4
2023-11-16T18:51:06.638Z,3.9
2023-11-16T18:56:58.153Z,3.8
2023-11-16T19:02:34.511Z,3.8
2023-11-16T19:08:11.608Z,3.7
2023-11-16T19:13:48.674Z,3.6
2023-11-16T19:19:41.909Z,3.6
2023-11-16T19:25:19.485Z,3.6
2023-11-16T19:30:59.400Z,3.6
2023-11-16T19:36:52.005Z,3.6
2023-11-16T19:43:05.436Z,3.5
2023-11-16T19:49:08.494Z,3.5
2023-11-16T19:55:01.727Z,3.5
2023-11-16T20:00:41.632Z,3.5
2023-11-16T20:06:37.793Z,3.4
2023-11-16T20:12:31.256Z,3.4
2023-11-16T20:18:23.571Z,3.4
2023-11-16T20:24:09.302Z,3.4
2023-11-16T20:30:01.923Z,3.4
2023-11-16T20:35:55.050Z,3.4
2023-11-16T20:41:58.711Z,3.4
2023-11-16T20:47:51.213Z,3.4
2023-11-16T20:53:29.435Z,3.4
2023-11-16T20:59:05.904Z,3.4
2023-11-16T21:04:45.979Z,3.5
2023-11-16T21:10:07.841Z,3.6
2023-11-16T21:15:45.359Z,3.5
2023-11-16T21:21:37.750Z,3.5
2023-11-16T21:27:29.440Z,3.5
2023-11-16T21:33:22.560Z,3.6
2023-11-16T21:38:59.342Z,3.6
2023-11-16T21:44:52.464Z,3.5
2023-11-16T21:50:45.293Z,3.6
2023-11-16T21:56:36.968Z,3.6
2023-11-16T22:02:30.820Z,3.6
2023-11-16T22:08:08.640Z,3.6
2023-11-16T22:14:00.838Z,3.7
2023-11-16T22:19:53.871Z,3.7
2023-11-16T22:25:30.241Z,3.7
2023-11-16T22:31:22.336Z,3.7
2023-11-16T22:37:13.876Z,3.7
2023-11-16T22:43:06.469Z,3.6
2023-11-16T22:48:59.333Z,3.6
2023-11-16T22:54:35.688Z,3.6
2023-11-16T23:00:28.816Z,3.6
2023-11-16T23:06:07.727Z,3.6
2023-11-16T23:12:02.233Z,3.5
2023-11-16T23:17:55.261Z,3.5
2023-11-16T23:23:56.244Z,3.6
2023-11-16T23:29:48.761Z,3.6
2023-11-16T23:35:41.382Z,3.6
2023-11-16T23:41:34.085Z,3.6
2023-11-16T23:47:11.051Z,3.6
2023-11-16T23:53:00.814Z,3.6
2023-11-16T23:58:37.591Z,3.6
